createdAt,value
2023-04-06T04:05:58.616Z,8.10
2023-04-06T04:08:27.505Z,8.40
2023-04-06T04:11:05.382Z,8.10
2023-04-06T04:13:32.798Z,8.27
2023-04-06T04:16:01.288Z,7.88
2023-04-06T04:18:29.204Z,8.05
2023-04-06T04:20:56.962Z,8.82
2023-04-06T04:23:25.138Z,7.90
2023-04-06T04:25:52.990Z,8.10
2023-04-06T04:28:20.722Z,8.02
2023-04-06T04:30:48.454Z,7.75
2023-04-06T04:33:16.939Z,8.75
2023-04-06T04:35:45.921Z,8.55
2023-04-06T04:38:17.638Z,7.78
2023-04-06T04:40:50.336Z,8.32
2023-04-06T04:43:17.616Z,8.23
2023-04-06T04:45:46.153Z,8.40
2023-04-06T04:48:24.108Z,8.32
2023-04-06T04:50:57.168Z,8.10
2023-04-06T04:53:29.349Z,8.82
2023-04-06T04:56:03.019Z,8.02
2023-04-06T04:58:31.283Z,9.13
2023-04-06T05:01:01.401Z,8.07
2023-04-06T05:03:29.840Z,8.93
2023-04-06T05:06:05.490Z,8.70
2023-04-06T05:08:35.703Z,8.80
2023-04-06T05:11:03.508Z,8.45
2023-04-06T05:16:08.830Z,8.05
2023-04-06T05:18:37.761Z,8.63
2023-04-06T05:21:07.123Z,9.30
2023-04-06T05:23:46.933Z,9.85
2023-04-06T05:26:14.418Z,9.30
2023-04-06T05:28:43.494Z,9.60
2023-04-06T05:31:11.976Z,8.77
2023-04-06T05:33:47.193Z,8.63
2023-04-06T05:36:17.217Z,8.65
2023-04-06T05:38:47.277Z,8.60
2023-04-06T05:41:30.691Z,8.93
2023-04-06T05:43:58.658Z,8.15
2023-04-06T05:46:27.521Z,8.38
2023-04-06T05:48:57.329Z,7.68
2023-04-06T05:51:28.349Z,8.45
2023-04-06T05:53:55.892Z,9.20
2023-04-06T05:56:24.757Z,9.15
2023-04-06T05:58:52.421Z,9.23
2023-04-06T06:01:25.819Z,9.20
2023-04-06T06:03:53.333Z,9.75
2023-04-06T06:06:21.845Z,9.75
2023-04-06T06:09:10.065Z,9.68
2023-04-06T06:11:43.853Z,11.82
2023-04-06T06:14:14.446Z,9.85
2023-04-06T06:16:42.690Z,8.70
2023-04-06T06:19:13.379Z,7.65
2023-04-06T06:21:41.544Z,8.02
2023-04-06T06:24:10.533Z,8.43
2023-04-06T06:26:40.448Z,8.10
2023-04-06T06:29:09.051Z,8.23
2023-04-06T06:31:39.712Z,9.20
2023-04-06T06:34:07.430Z,8.95
2023-04-06T06:36:36.724Z,9.35
2023-04-06T06:39:08.092Z,10.25
2023-04-06T06:41:36.797Z,11.55
2023-04-06T06:44:04.979Z,10.90
2023-04-06T06:46:32.541Z,9.90
2023-04-06T06:49:01.241Z,8.75
2023-04-06T06:51:29.078Z,11.35
2023-04-06T06:53:56.464Z,8.77
2023-04-06T06:56:23.883Z,9.00
2023-04-06T06:58:52.986Z,8.15
2023-04-06T07:01:21.332Z,9.13
2023-04-06T07:03:49.684Z,9.60
2023-04-06T07:06:16.993Z,8.95
2023-04-06T07:08:44.313Z,9.52
2023-04-06T07:11:11.830Z,9.27
2023-04-06T07:13:39.559Z,9.02
2023-04-06T07:16:07.399Z,8.95
2023-04-06T07:18:36.260Z,8.63
2023-04-06T07:21:05.550Z,8.32
2023-04-06T07:23:33.418Z,8.38
2023-04-06T07:26:00.886Z,7.97
2023-04-06T07:28:28.382Z,8.52
2023-04-06T07:30:56.422Z,8.90
2023-04-06T07:33:23.805Z,7.95
2023-04-06T07:35:53.486Z,8.77
2023-04-06T07:38:21.437Z,8.82
2023-04-06T07:40:49.473Z,8.70
2023-04-06T07:43:18.730Z,8.75
2023-04-06T07:45:46.416Z,8.50
2023-04-06T07:48:17.189Z,8.20
2023-04-06T07:50:46.415Z,7.60
2023-04-06T07:53:13.822Z,7.97
2023-04-06T07:55:42.068Z,7.72
2023-04-06T07:58:09.895Z,8.77
2023-04-06T08:00:37.939Z,8.63
2023-04-06T08:03:06.660Z,9.02
2023-04-06T08:05:34.187Z,8.50
2023-04-06T08:08:01.632Z,9.02
2023-04-06T08:10:28.894Z,8.73
2023-04-06T08:12:56.729Z,7.05
2023-04-06T08:15:24.577Z,6.93
2023-04-06T08:17:52.118Z,6.38
2023-04-06T08:20:19.501Z,6.20
2023-04-06T08:22:46.862Z,5.80
2023-04-06T08:25:14.226Z,5.80
2023-04-06T08:27:41.771Z,6.13
2023-04-06T08:30:10.689Z,7.18
2023-04-06T08:32:38.210Z,6.68
2023-04-06T08:35:05.735Z,5.90
2023-04-06T08:37:33.585Z,5.45
2023-04-06T08:40:01.130Z,6.10
2023-04-06T08:42:32.854Z,6.18
2023-04-06T08:45:01.361Z,6.22
2023-04-06T08:47:29.113Z,5.78
2023-04-06T08:49:57.298Z,6.63
2023-04-06T08:52:27.848Z,6.93
2023-04-06T08:54:55.322Z,6.97
2023-04-06T08:57:24.150Z,6.90
2023-04-06T08:59:53.313Z,6.15
2023-04-06T09:02:21.464Z,6.15
2023-04-06T09:04:50.615Z,6.13
2023-04-06T09:07:18.269Z,5.97
2023-04-06T09:09:49.343Z,6.28
2023-04-06T09:12:27.850Z,5.83
2023-04-06T09:14:57.046Z,6.50
2023-04-06T09:17:27.308Z,5.40
2023-04-06T09:19:56.028Z,6.00
2023-04-06T09:22:26.624Z,6.20
2023-04-06T09:24:55.710Z,6.18
2023-04-06T09:27:33.410Z,6.75
2023-04-06T09:30:09.719Z,6.38
2023-04-06T09:32:52.509Z,5.22
2023-04-06T09:35:23.265Z,4.55
2023-04-06T09:37:52.775Z,5.40
2023-04-06T09:40:22.048Z,5.22
2023-04-06T09:42:53.454Z,4.63
2023-04-06T09:45:21.892Z,5.03
2023-04-06T09:47:52.503Z,5.05
2023-04-06T09:50:21.124Z,6.17
2023-04-06T09:52:51.852Z,5.97
2023-04-06T09:55:27.627Z,5.80
2023-04-06T09:58:10.457Z,5.55
2023-04-06T10:00:48.533Z,4.63
2023-04-06T10:03:26.905Z,5.28
2023-04-06T10:06:01.098Z,4.93
2023-04-06T10:08:32.541Z,4.88
2023-04-06T10:13:29.639Z,5.65
2023-04-06T10:15:58.227Z,6.70
2023-04-06T10:18:25.791Z,6.88
2023-04-06T10:21:10.294Z,6.35
2023-04-06T10:23:50.229Z,6.53
2023-04-06T10:26:21.737Z,6.70
2023-04-06T10:28:51.518Z,6.28
2023-04-06T10:31:29.704Z,6.25
2023-04-06T10:34:02.054Z,7.25
2023-04-06T10:36:34.147Z,6.72
2023-04-06T10:39:04.812Z,7.18
2023-04-06T10:41:36.872Z,6.82
2023-04-06T10:44:05.544Z,7.40
2023-04-06T10:46:35.472Z,6.68
2023-04-06T10:49:15.499Z,6.85
2023-04-06T10:51:43.268Z,6.30
2023-04-06T10:54:12.436Z,7.05
2023-04-06T10:56:40.361Z,7.03
2023-04-06T10:59:08.666Z,7.38
2023-04-06T11:01:36.239Z,6.95
2023-04-06T11:04:04.313Z,6.65
2023-04-06T11:06:33.374Z,6.38
2023-04-06T11:09:01.317Z,7.00
2023-04-06T11:11:28.936Z,6.20
2023-04-06T11:13:58.693Z,5.95
2023-04-06T11:16:29.775Z,6.03
2023-04-06T11:19:07.350Z,5.35
2023-04-06T11:21:48.314Z,5.82
2023-04-06T11:24:21.799Z,5.72
2023-04-06T11:26:58.190Z,5.22
2023-04-06T11:29:31.853Z,5.28
2023-04-06T11:32:08.042Z,5.72
2023-04-06T11:34:39.446Z,5.72
2023-04-06T11:37:12.562Z,5.93
2023-04-06T11:39:42.656Z,5.60
2023-04-06T11:42:10.746Z,6.03
2023-04-06T11:44:47.007Z,6.45
2023-04-06T11:47:14.504Z,5.72
2023-04-06T11:49:43.887Z,6.70
2023-04-06T11:52:23.175Z,7.10
2023-04-06T11:54:52.822Z,7.25
2023-04-06T11:57:21.961Z,7.43
2023-04-06T11:59:50.805Z,6.60
2023-04-06T12:02:18.959Z,6.85
2023-04-06T12:04:46.919Z,6.53
2023-04-06T12:07:14.497Z,6.55
2023-04-06T12:09:42.364Z,6.82
2023-04-06T12:12:09.619Z,6.60
2023-04-06T12:14:37.019Z,6.60
2023-04-06T12:17:04.751Z,6.75
2023-04-06T12:19:32.572Z,7.00
2023-04-06T12:22:00.749Z,6.28
2023-04-06T12:24:29.638Z,6.72
2023-04-06T12:27:08.760Z,7.15
2023-04-06T12:29:39.792Z,5.88
2023-04-06T12:32:07.768Z,6.35
2023-04-06T12:34:35.918Z,6.45
2023-04-06T12:37:03.301Z,6.30
2023-04-06T12:39:31.167Z,6.20
2023-04-06T12:41:58.919Z,6.35
2023-04-06T12:44:27.265Z,6.30
2023-04-06T12:46:55.113Z,6.13
2023-04-06T12:49:22.873Z,6.10
2023-04-06T12:51:51.231Z,6.30
2023-04-06T12:54:18.759Z,6.40
2023-04-06T12:56:46.490Z,6.22
2023-04-06T12:59:14.542Z,5.60
2023-04-06T13:01:42.356Z,5.85
2023-04-06T13:04:09.906Z,5.80
2023-04-06T13:06:37.844Z,6.22
2023-04-06T13:09:06.529Z,6.10
2023-04-06T13:11:34.020Z,6.10
2023-04-06T13:14:01.352Z,6.20
2023-04-06T13:16:28.961Z,6.45
2023-04-06T13:18:56.767Z,6.05
2023-04-06T13:21:24.744Z,6.55
2023-04-06T13:23:52.598Z,6.40
2023-04-06T13:26:20.840Z,5.60
2023-04-06T13:28:48.821Z,6.15
2023-04-06T13:31:16.228Z,6.15
2023-04-06T13:33:44.044Z,7.00
2023-04-06T13:36:11.450Z,5.95
2023-04-06T13:38:40.021Z,5.47
2023-04-06T13:41:07.759Z,6.07
2023-04-06T13:43:35.789Z,5.30
2023-04-06T13:46:03.731Z,5.95
2023-04-06T13:48:31.545Z,6.47
2023-04-06T13:50:59.425Z,6.30
2023-04-06T13:53:27.204Z,5.93
2023-04-06T13:55:56.760Z,6.10
2023-04-06T13:58:24.378Z,6.38
2023-04-06T14:00:52.327Z,6.50
2023-04-06T14:03:22.747Z,6.18
2023-04-06T14:05:50.380Z,5.55
2023-04-06T14:08:17.754Z,6.63
2023-04-06T14:10:45.491Z,6.10
2023-04-06T14:13:12.862Z,6.63
2023-04-06T14:15:40.668Z,6.05
2023-04-06T14:18:08.997Z,7.00
2023-04-06T14:20:36.394Z,6.45
2023-04-06T14:23:04.445Z,6.20
2023-04-06T14:25:33.254Z,6.18
2023-04-06T14:28:00.740Z,6.13
2023-04-06T14:30:28.946Z,5.90
2023-04-06T14:33:00.796Z,5.85
2023-04-06T14:35:29.274Z,6.38
2023-04-06T14:38:01.567Z,6.13
2023-04-06T14:40:28.922Z,6.28
2023-04-06T14:42:57.493Z,6.00
2023-04-06T14:45:25.032Z,6.80
2023-04-06T14:47:52.801Z,7.35
2023-04-06T14:50:20.693Z,7.13
2023-04-06T14:52:48.372Z,7.80
2023-04-06T14:55:16.602Z,7.95
2023-04-06T14:57:44.249Z,7.82
2023-04-06T15:00:12.322Z,8.75
2023-04-06T15:02:41.158Z,7.95
2023-04-06T15:05:09.953Z,8.30
2023-04-06T15:07:37.257Z,8.65
2023-04-06T15:10:06.095Z,9.15
2023-04-06T15:12:36.256Z,8.45
2023-04-06T15:15:06.061Z,9.60
2023-04-06T15:17:33.822Z,8.38
2023-04-06T15:20:01.611Z,9.43
2023-04-06T15:22:29.437Z,8.30
2023-04-06T15:24:56.689Z,8.55
2023-04-06T15:27:24.361Z,9.32
2023-04-06T15:29:51.780Z,9.45
2023-04-06T15:32:19.519Z,9.00
2023-04-06T15:34:46.847Z,8.50
2023-04-06T15:37:14.157Z,9.75
2023-04-06T15:39:41.785Z,9.82
2023-04-06T15:42:09.138Z,9.32
2023-04-06T15:44:36.667Z,8.82
2023-04-06T15:47:04.859Z,8.70
2023-04-06T15:49:32.951Z,9.88
2023-04-06T15:52:00.473Z,9.40
2023-04-06T15:54:27.833Z,9.82
2023-04-06T15:56:56.875Z,8.55
2023-04-06T15:59:24.678Z,8.57
2023-04-06T16:01:52.073Z,8.95
2023-04-06T16:04:19.421Z,7.97
2023-04-06T16:06:47.218Z,9.32
2023-04-06T16:09:16.005Z,10.25
2023-04-06T16:11:44.084Z,9.45
2023-04-06T16:14:11.669Z,8.40
2023-04-06T16:16:39.925Z,9.07
2023-04-06T16:19:07.620Z,9.20
2023-04-06T16:21:35.861Z,8.25
2023-04-06T16:24:04.534Z,8.55
2023-04-06T16:26:31.928Z,8.25
2023-04-06T16:28:59.408Z,9.63
2023-04-06T16:31:27.234Z,10.05
2023-04-06T16:33:56.480Z,9.30
2023-04-06T16:36:28.764Z,9.05
2023-04-06T16:38:57.491Z,9.38
2023-04-06T16:41:26.520Z,9.15
2023-04-06T16:43:57.368Z,8.77
2023-04-06T16:46:31.452Z,9.27
2023-04-06T16:49:00.382Z,9.32
2023-04-06T16:51:28.527Z,10.23
2023-04-06T16:53:56.044Z,9.75
2023-04-06T16:56:23.680Z,9.90
2023-04-06T16:58:51.558Z,9.98
2023-04-06T17:01:24.142Z,10.02
2023-04-06T17:03:52.958Z,10.05
2023-04-06T17:06:20.831Z,8.48
2023-04-06T17:08:48.590Z,9.95
2023-04-06T17:11:20.303Z,9.27
2023-04-06T17:13:51.589Z,9.93
2023-04-06T17:16:19.506Z,10.80
2023-04-06T17:18:46.969Z,10.98
2023-04-06T17:21:16.854Z,11.32
2023-04-06T17:23:44.753Z,11.80
2023-04-06T17:26:12.607Z,12.02
2023-04-06T17:28:40.452Z,11.48
2023-04-06T17:31:12.363Z,11.13
2023-04-06T17:33:41.120Z,9.95
2023-04-06T17:36:12.429Z,9.75
2023-04-06T17:38:43.816Z,10.18
2023-04-06T17:41:13.764Z,9.45
2023-04-06T17:43:41.226Z,9.05
2023-04-06T17:46:09.276Z,9.73
2023-04-06T17:48:37.314Z,10.77
2023-04-06T17:51:06.123Z,11.77
2023-04-06T17:53:34.468Z,11.93
2023-04-06T17:56:03.829Z,12.48
2023-04-06T17:58:31.539Z,11.45
2023-04-06T18:00:58.900Z,12.00
2023-04-06T18:03:27.099Z,12.27
2023-04-06T18:05:54.840Z,11.95
2023-04-06T18:08:22.540Z,20.60
2023-04-06T18:10:50.229Z,24.85
2023-04-06T18:13:17.541Z,17.83
2023-04-06T18:15:45.675Z,17.02
2023-04-06T18:18:13.062Z,16.13
2023-04-06T18:20:41.695Z,15.75
2023-04-06T18:23:09.689Z,16.50
2023-04-06T18:25:40.799Z,15.80
2023-04-06T18:28:09.357Z,13.80
2023-04-06T18:30:37.207Z,11.15
2023-04-06T18:33:06.484Z,11.35
2023-04-06T18:35:33.844Z,11.05
2023-04-06T18:38:01.627Z,11.20
2023-04-06T18:40:32.935Z,11.57
2023-04-06T18:43:01.066Z,11.85
2023-04-06T18:45:28.634Z,12.02
2023-04-06T18:47:57.249Z,12.63
2023-04-06T18:50:25.561Z,12.45
2023-04-06T18:52:53.679Z,14.05
2023-04-06T18:55:21.139Z,15.30
2023-04-06T18:57:49.072Z,14.13
2023-04-06T19:00:17.775Z,14.23
2023-04-06T19:02:46.122Z,14.98
2023-04-06T19:05:14.490Z,15.73
2023-04-06T19:07:43.293Z,16.27
2023-04-06T19:10:11.049Z,14.80
2023-04-06T19:12:40.028Z,15.40
2023-04-06T19:15:08.770Z,15.45
2023-04-06T19:17:37.387Z,15.60
2023-04-06T19:20:05.508Z,15.23
2023-04-06T19:22:36.783Z,16.27
2023-04-06T19:25:07.984Z,15.85
2023-04-06T19:27:35.358Z,15.25
2023-04-06T19:30:04.068Z,15.82
2023-04-06T19:32:31.649Z,15.60
2023-04-06T19:35:01.421Z,17.58
2023-04-06T19:37:29.145Z,18.33
2023-04-06T19:39:57.015Z,16.70
2023-04-06T19:42:25.260Z,16.35
2023-04-06T19:44:53.693Z,16.15
2023-04-06T19:47:21.675Z,16.67
2023-04-06T19:49:50.669Z,16.95
2023-04-06T19:52:19.575Z,17.13
2023-04-06T19:54:47.051Z,17.10
2023-04-06T19:57:15.630Z,18.85
2023-04-06T19:59:43.611Z,19.08
2023-04-06T20:02:11.514Z,19.70
2023-04-06T20:04:39.359Z,18.92
2023-04-06T20:07:07.285Z,18.65
2023-04-06T20:09:34.661Z,17.90
2023-04-06T20:12:02.017Z,18.23
2023-04-06T20:14:30.542Z,19.75
2023-04-06T20:16:59.983Z,24.83
2023-04-06T20:19:27.309Z,23.77
2023-04-06T20:21:54.715Z,22.27
2023-04-06T20:24:22.149Z,21.25
2023-04-06T20:26:50.746Z,21.95
2023-04-06T20:29:18.113Z,22.35
2023-04-06T20:31:45.844Z,21.98
2023-04-06T20:34:13.978Z,23.13
2023-04-06T20:36:42.015Z,22.42
2023-04-06T20:39:09.296Z,20.98
2023-04-06T20:41:36.535Z,22.08
2023-04-06T20:44:04.296Z,20.25
2023-04-06T20:46:31.743Z,21.52
2023-04-06T20:48:59.601Z,22.92
2023-04-06T20:51:27.927Z,22.15
2023-04-06T20:53:56.827Z,23.27
2023-04-06T20:56:24.166Z,25.63
